Time;durP1;ratioP1;P1;durP2;ratioP2;P2;SDS_P1;SDS_P2;PMS_P1;PMS_P2;Temp;Humidity;BMP_temperature;BMP_pressure;BME280_temperature;BME280_humidity;BME280_pressure;Samples;Min_cycle;Max_cycle;Signal;HPM_P1;HPM_P2
2023/08/17 00:01:40;;;;;;;;;;;;;;;;;;5038592;28;20299;-81
2023/08/17 00:04:05;;;;;;;;;;;;;;;;;;5037339;28;20015;-81
2023/08/17 00:06:30;;;;;;;;;;;;;;;;;;5037684;28;20600;-82
2023/08/17 00:08:56;;;;;;;;;;;;;;;;;;5055904;28;19950;-80
2023/08/17 00:11:21;;;;;;;;;;;;;;;;;;5057158;28;19919;-81
2023/08/17 00:13:46;;;;;;;;;;;;;;;;;;5038609;28;19921;-83
2023/08/17 00:16:12;;;;;;;;;;;;;;;;;;5038443;28;19989;-80
2023/08/17 00:18:37;;;;;;;;;;;;;;;;;;5039394;28;20386;-81
2023/08/17 00:21:03;;;;;;;;;;;;;;;;;;5038371;28;19912;-83
2023/08/17 00:23:29;;;;;;;;;;;;;;;;;;5038406;28;19925;-80
2023/08/17 00:25:54;;;;;;;;;;;;;;;;;;5035391;28;19974;-83
2023/08/17 00:28:19;;;;;;;;;;;;;;;;;;5039370;28;19935;-83
2023/08/17 00:30:44;;;;;;;;;;;;;;;;;;5045329;28;19932;-83
2023/08/17 00:33:10;;;;;;;;;;;;;;;;;;5040656;28;19944;-82
2023/08/17 00:35:35;;;;;;;;;;;;;;;;;;5042151;28;19917;-81
2023/08/17 00:38:00;;;;;;;;;;;;;;;;;;5034403;28;19966;-82
2023/08/17 00:40:26;;;;;;;;;;;;;;;;;;5043357;28;19921;-83
2023/08/17 00:42:51;;;;;;;;;;;;;;;;;;5039340;28;19921;-84
2023/08/17 00:45:17;;;;;;;;;;;;;;;;;;5040787;28;19919;-83
2023/08/17 00:47:42;;;;;;;;;;;;;;;;;;5046483;28;19923;-82
2023/08/17 00:50:08;;;;;;;;;;;;;;;;;;5041625;28;19913;-81
2023/08/17 00:52:34;;;;;;;;;;;;;;;;;;5046087;28;19917;-81
2023/08/17 00:55:00;;;;;;;;;;;;;;;;;;5042752;28;19925;-83
2023/08/17 00:57:26;;;;;;;;;;;;;;;;;;5042589;28;20017;-83
2023/08/17 00:59:51;;;;;;;;;;;;;;;;;;5034570;28;19913;-83
2023/08/17 01:02:17;;;;;;;;;;;;;;;;;;5022568;28;19913;-83
2023/08/17 01:04:42;;;;;;;;;;;;;;;;;;5035030;28;19952;-82
2023/08/17 01:07:07;;;;;;;;;;;;;;;;;;5034431;28;19924;-81
2023/08/17 01:09:32;;;;;;;;;;;;;;;;;;5036926;28;19917;-84
2023/08/17 01:12:11;;;;;;;;;;;;;;;;;;5039757;28;20019;-84
2023/08/17 01:14:47;;;;;;;;;;;;;;;;;;5037707;28;19921;-84
2023/08/17 01:17:17;;;;;;;;;;;;;;;;;;5044324;28;19947;-84
2023/08/17 01:19:45;;;;;;;;;;;;;;;;;;5042812;28;19913;-84
2023/08/17 01:22:11;;;;;;;;;;;;;;;;;;5039552;28;19948;-83
2023/08/17 01:24:36;;;;;;;;;;;;;;;;;;5042472;28;19912;-84
2023/08/17 01:27:01;;;;;;;;;;;;;;;;;;5046155;28;20646;-83
2023/08/17 01:29:27;;;;;;;;;;;;;;;;;;5039111;28;19920;-83
2023/08/17 01:31:52;;;;;;;;;;;;;;;;;;5040557;28;19913;-83
2023/08/17 01:34:19;;;;;;;;;;;;;;;;;;5038550;28;19923;-84
2023/08/17 01:36:47;;;;;;;;;;;;;;;;;;5046542;28;20327;-84
2023/08/17 01:39:16;;;;;;;;;;;;;;;;;;5038560;28;19972;-84
2023/08/17 01:41:41;;;;;;;;;;;;;;;;;;5039841;28;19995;-84
2023/08/17 01:44:07;;;;;;;;;;;;;;;;;;5044646;28;19947;-84
2023/08/17 01:46:33;;;;;;;;;;;;;;;;;;5039106;28;19967;-84
2023/08/17 01:48:58;;;;;;;;;;;;;;;;;;5043141;28;19924;-84
2023/08/17 01:51:24;;;;;;;;;;;;;;;;;;5036684;28;19916;-84
2023/08/17 01:53:49;;;;;;;;;;;;;;;;;;5049123;28;19908;-84
2023/08/17 01:56:15;;;;;;;;;;;;;;;;;;5043878;28;20281;-83
2023/08/17 01:58:40;;;;;;;;;;;;;;;;;;5038168;28;19917;-84
2023/08/17 02:01:05;;;;;;;;;;;;;;;;;;5046840;28;19920;-84
2023/08/17 02:03:31;;;;;;;;;;;;;;;;;;5042037;28;20501;-84
2023/08/17 02:05:57;;;;;;;;;;;;;;;;;;5038967;28;19967;-84
2023/08/17 02:08:22;;;;;;;;;;;;;;;;;;5037044;28;19917;-84
2023/08/17 02:10:47;;;;;;;;;;;;;;;;;;5046013;28;19920;-84
2023/08/17 02:13:13;;;;;;;;;;;;;;;;;;5036569;28;19913;-83
2023/08/17 02:15:39;;;;;;;;;;;;;;;;;;5042715;28;19939;-83
2023/08/17 02:18:05;;;;;;;;;;;;;;;;;;5030004;28;19913;-84
2023/08/17 02:20:30;;;;;;;;;;;;;;;;;;5040798;28;19924;-84
2023/08/17 02:22:55;;;;;;;;;;;;;;;;;;5022417;28;20028;-84
2023/08/17 02:25:20;;;;;;;;;;;;;;;;;;5020023;28;19932;-84
2023/08/17 02:27:46;;;;;;;;;;;;;;;;;;5027461;28;19952;-84
2023/08/17 02:30:12;;;;;;;;;;;;;;;;;;5020621;28;19917;-84
2023/08/17 02:32:37;;;;;;;;;;;;;;;;;;5018416;28;20411;-84
2023/08/17 02:35:02;;;;;;;;;;;;;;;;;;5021079;28;19925;-84
2023/08/17 02:37:27;;;;;;;;;;;;;;;;;;5021430;28;19959;-83
2023/08/17 02:39:53;;;;;;;;;;;;;;;;;;5023376;28;19925;-84
2023/08/17 02:42:18;;;;;;;;;;;;;;;;;;5024771;28;19943;-84
2023/08/17 02:44:43;;;;;;;;;;;;;;;;;;5041409;28;19952;-84
2023/08/17 02:47:09;;;;;;;;;;;;;;;;;;5022755;28;19967;-84
2023/08/17 02:49:35;;;;;;;;;;;;;;;;;;5031978;28;19920;-84
2023/08/17 02:52:00;;;;;;;;;;;;;;;;;;5022527;28;19932;-84
2023/08/17 02:54:25;;;;;;;;;;;;;;;;;;5044988;28;20122;-84
2023/08/17 02:56:51;;;;;;;;;;;;;;;;;;5023536;28;20391;-84
2023/08/17 02:59:16;;;;;;;;;;;;;;;;;;5019983;28;19917;-83
2023/08/17 03:01:41;;;;;;;;;;;;;;;;;;5036547;28;20299;-85
2023/08/17 03:04:07;;;;;;;;;;;;;;;;;;5038261;28;19924;-85
2023/08/17 03:06:32;;;;;;;;;;;;;;;;;;5041074;28;19924;-83
2023/08/17 03:08:57;;;;;;;;;;;;;;;;;;5040617;28;19921;-84
2023/08/17 03:11:22;;;;;;;;;;;;;;;;;;5043708;28;19920;-84
2023/08/17 03:13:48;;;;;;;;;;;;;;;;;;5044722;28;19928;-84
2023/08/17 03:16:14;;;;;;;;;;;;;;;;;;5039769;28;19920;-84
2023/08/17 03:18:39;;;;;;;;;;;;;;;;;;5040859;28;20011;-84
2023/08/17 03:21:05;;;;;;;;;;;;;;;;;;5043951;28;20336;-84
2023/08/17 03:23:32;;;;;;;;;;;;;;;;;;5042080;28;20644;-84
2023/08/17 03:25:57;;;;;;;;;;;;;;;;;;5041449;28;19921;-84
2023/08/17 03:28:22;;;;;;;;;;;;;;;;;;5043930;28;19940;-84
2023/08/17 03:30:47;;;;;;;;;;;;;;;;;;5043823;28;19944;-84
2023/08/17 03:33:13;;;;;;;;;;;;;;;;;;5043997;28;19935;-83
2023/08/17 03:35:38;;;;;;;;;;;;;;;;;;5048193;28;20461;-84
2023/08/17 03:38:03;;;;;;;;;;;;;;;;;;5048331;28;19912;-84
2023/08/17 03:40:29;;;;;;;;;;;;;;;;;;5038811;28;19921;-84
2023/08/17 03:42:54;;;;;;;;;;;;;;;;;;5036450;28;19944;-83
2023/08/17 03:45:19;;;;;;;;;;;;;;;;;;5030357;28;19913;-84
2023/08/17 03:47:44;;;;;;;;;;;;;;;;;;5039970;28;20011;-84
2023/08/17 03:50:10;;;;;;;;;;;;;;;;;;5042964;28;19920;-84
2023/08/17 03:52:35;;;;;;;;;;;;;;;;;;5037437;28;20325;-83
2023/08/17 03:55:01;;;;;;;;;;;;;;;;;;5038474;28;19921;-84
2023/08/17 03:57:26;;;;;;;;;;;;;;;;;;5037099;28;19920;-83
2023/08/17 03:59:51;;;;;;;;;;;;;;;;;;5055888;28;20012;-84
2023/08/17 04:02:16;;;;;;;;;;;;;;;;;;5043419;28;19944;-83
2023/08/17 04:04:42;;;;;;;;;;;;;;;;;;5034097;28;20395;-83
2023/08/17 04:07:07;;;;;;;;;;;;;;;;;;5040177;28;19913;-82
2023/08/17 04:09:33;;;;;;;;;;;;;;;;;;5041217;28;19921;-82
2023/08/17 04:11:59;;;;;;;;;;;;;;;;;;5040402;28;19924;-84
2023/08/17 04:14:24;;;;;;;;;;;;;;;;;;5035126;28;19924;-83
2023/08/17 04:16:49;;;;;;;;;;;;;;;;;;5038310;28;19909;-83
2023/08/17 04:19:14;;;;;;;;;;;;;;;;;;5040092;28;19955;-83
2023/08/17 04:21:40;;;;;;;;;;;;;;;;;;5043391;28;19909;-83
2023/08/17 04:24:05;;;;;;;;;;;;;;;;;;5040337;28;19913;-83
2023/08/17 04:26:30;;;;;;;;;;;;;;;;;;5026415;28;20380;-83
2023/08/17 04:28:56;;;;;;;;;;;;;;;;;;5022590;28;20312;-82
2023/08/17 04:31:21;;;;;;;;;;;;;;;;;;5028038;28;20499;-83
2023/08/17 04:33:46;;;;;;;;;;;;;;;;;;5039066;22;19901;-82
2023/08/17 04:36:12;;;;;;;;;;;;;;;;;;5082866;28;20389;-82
2023/08/17 04:38:37;;;;;;;;;;;;;;;;;;5055067;28;19920;-83
2023/08/17 04:41:02;;;;;;;;;;;;;;;;;;5073185;28;19916;-80
2023/08/17 04:43:28;;;;;;;;;;;;;;;;;;5071697;28;19943;-81
2023/08/17 04:45:53;;;;;;;;;;;;;;;;;;5074324;28;20350;-81
2023/08/17 04:48:18;;;;;;;;;;;;;;;;;;5068391;28;20286;-81
2023/08/17 04:50:44;;;;;;;;;;;;;;;;;;5076312;28;20015;-81
2023/08/17 04:53:09;;;;;;;;;;;;;;;;;;5063269;28;19916;-81
2023/08/17 04:55:35;;;;;;;;;;;;;;;;;;5074763;28;19916;-81
2023/08/17 04:58:00;;;;;;;;;;;;;;;;;;5076245;28;19912;-81
2023/08/17 05:00:27;;;;;;;;;;;;;;;;;;5053347;28;19993;-81
2023/08/17 05:02:53;;;;;;;;;;;;;;;;;;5059098;28;20007;-81
2023/08/17 05:05:18;;;;;;;;;;;;;;;;;;5076900;28;19955;-81
2023/08/17 05:07:44;;;;;;;;;;;;;;;;;;5055629;28;19916;-81
2023/08/17 05:10:09;;;;;;;;;;;;;;;;;;5082658;28;19915;-81
2023/08/17 05:12:34;;;;;;;;;;;;;;;;;;5077469;28;19921;-81
2023/08/17 05:14:59;;;;;;;;;;;;;;;;;;5078456;28;20431;-82
2023/08/17 05:17:25;;;;;;;;;;;;;;;;;;5052859;28;19974;-81
2023/08/17 05:19:51;;;;;;;;;;;;;;;;;;5052921;28;19920;-81
2023/08/17 05:22:16;;;;;;;;;;;;;;;;;;5062317;28;19916;-81
2023/08/17 05:24:41;;;;;;;;;;;;;;;;;;5077698;28;20000;-81
2023/08/17 05:27:07;;;;;;;;;;;;;;;;;;5059068;28;19916;-81
2023/08/17 05:29:32;;;;;;;;;;;;;;;;;;5054872;28;19920;-81
2023/08/17 05:31:58;;;;;;;;;;;;;;;;;;5055914;28;19912;-81
2023/08/17 05:34:23;;;;;;;;;;;;;;;;;;5061497;28;19924;-81
2023/08/17 05:36:49;;;;;;;;;;;;;;;;;;5056877;28;19923;-84
2023/08/17 05:39:14;;;;;;;;;;;;;;;;;;5055824;28;19908;-82
2023/08/17 05:41:39;;;;;;;;;;;;;;;;;;5063676;28;19912;-82
2023/08/17 05:44:06;;;;;;;;;;;;;;;;;;5058069;28;20420;-82
2023/08/17 05:46:32;;;;;;;;;;;;;;;;;;5074112;28;20069;-82
2023/08/17 05:48:58;;;;;;;;;;;;;;;;;;5055706;28;19974;-82
2023/08/17 05:51:23;;;;;;;;;;;;;;;;;;5057268;28;19931;-82
2023/08/17 05:53:49;;;;;;;;;;;;;;;;;;5073265;28;20103;-82
2023/08/17 05:56:14;;;;;;;;;;;;;;;;;;5073303;28;19916;-82
2023/08/17 05:58:39;;;;;;;;;;;;;;;;;;5057694;28;19958;-82
2023/08/17 06:01:08;;;;;;;;;;;;;;;;;;5057236;28;20320;-82
2023/08/17 06:03:33;;;;;;;;;;;;;;;;;;5051735;28;20413;-82
2023/08/17 06:05:59;;;;;;;;;;;;;;;;;;5070769;28;19926;-82
2023/08/17 06:08:24;;;;;;;;;;;;;;;;;;5054850;28;19958;-82
2023/08/17 06:10:49;;;;;;;;;;;;;;;;;;5075860;28;19915;-82
2023/08/17 06:13:14;;;;;;;;;;;;;;;;;;5077022;28;19962;-81
2023/08/17 06:15:40;;;;;;;;;;;;;;;;;;5063228;28;19921;-81
2023/08/17 06:18:05;;;;;;;;;;;;;;;;;;5060485;28;20294;-82
2023/08/17 06:20:31;;;;;;;;;;;;;;;;;;5057517;28;20388;-81
2023/08/17 06:22:56;;;;;;;;;;;;;;;;;;5057008;28;19923;-82
2023/08/17 06:25:21;;;;;;;;;;;;;;;;;;5071780;28;19920;-82
2023/08/17 06:27:48;;;;;;;;;;;;;;;;;;5077556;28;19916;-82
2023/08/17 06:30:13;;;;;;;;;;;;;;;;;;5073549;28;20044;-82
2023/08/17 06:32:39;;;;;;;;;;;;;;;;;;5071085;28;19995;-82
2023/08/17 06:35:05;;;;;;;;;;;;;;;;;;5070346;28;20050;-80
2023/08/17 06:37:30;;;;;;;;;;;;;;;;;;5059004;28;19916;-82
2023/08/17 06:39:55;;;;;;;;;;;;;;;;;;5077499;28;19988;-82
2023/08/17 06:42:21;;;;;;;;;;;;;;;;;;5074473;28;20251;-83
2023/08/17 06:44:46;;;;;;;;;;;;;;;;;;5073020;28;20966;-80
2023/08/17 06:47:11;;;;;;;;;;;;;;;;;;5076453;28;20372;-80
2023/08/17 06:49:36;;;;;;;;;;;;;;;;;;5072452;28;19913;-80
2023/08/17 06:52:02;;;;;;;;;;;;;;;;;;5091281;28;19954;-80
2023/08/17 06:54:27;;;;;;;;;;;;;;;;;;5059571;28;19971;-80
2023/08/17 06:56:58;;;;;;;;;;;;;;;;;;5051501;28;19927;-80
2023/08/17 06:59:24;;;;;;;;;;;;;;;;;;5055927;28;20015;-80
2023/08/17 07:01:49;;;;;;;;;;;;;;;;;;5069989;28;19963;-80
2023/08/17 07:04:14;;;;;;;;;;;;;;;;;;5048716;28;19919;-78
2023/08/17 07:06:40;;;;;;;;;;;;;;;;;;5077191;28;19923;-81
2023/08/17 07:09:06;;;;;;;;;;;;;;;;;;5034147;22;19925;-82
2023/08/17 07:11:32;;;;;;;;;;;;;;;;;;5028221;28;21521;-82
2023/08/17 07:13:57;;;;;;;;;;;;;;;;;;5009891;28;19967;-82
2023/08/17 07:16:23;;;;;;;;;;;;;;;;;;5010384;28;19921;-82
2023/08/17 07:18:48;;;;;;;;;;;;;;;;;;5010064;28;19920;-81
2023/08/17 07:21:13;;;;;;;;;;;;;;;;;;5030108;28;20007;-83
2023/08/17 07:24:04;;;;;;;;;;;;;;;;;;5016090;28;19909;-81
2023/08/17 07:29:32;;;;;;;;;;;;;;;;;;5047574;22;19971;-85
2023/08/17 07:32:01;;;;;;;;;;;;;;;;;;5021417;28;19924;-88
2023/08/17 07:34:26;;;;;;;;;;;;;;;;;;5042183;28;19925;-86
2023/08/17 07:36:51;;;;;;;;;;;;;;;;;;5030041;28;20421;-88
2023/08/17 07:39:18;;;;;;;;;;;;;;;;;;5040191;28;19909;-87
2023/08/17 07:41:43;;;;;;;;;;;;;;;;;;5026356;28;19919;-84
2023/08/17 07:44:08;;;;;;;;;;;;;;;;;;5040855;28;19913;-84
2023/08/17 07:46:33;;;;;;;;;;;;;;;;;;5048241;28;19940;-85
2023/08/17 07:48:59;;;;;;;;;;;;;;;;;;5048326;28;19920;-86
2023/08/17 07:51:24;;;;;;;;;;;;;;;;;;5048116;28;19928;-85
2023/08/17 07:53:49;;;;;;;;;;;;;;;;;;5031108;28;19920;-86
2023/08/17 07:56:14;;;;;;;;;;;;;;;;;;5029128;28;19943;-86
2023/08/17 07:58:40;;;;;;;;;;;;;;;;;;5043592;28;19917;-84
2023/08/17 08:01:05;;;;;;;;;;;;;;;;;;5047542;28;19913;-85
2023/08/17 08:03:30;;;;;;;;;;;;;;;;;;5053814;28;19917;-85
2023/08/17 08:05:56;;;;;;;;;;;;;;;;;;5044449;28;19920;-86
2023/08/17 08:08:21;;;;;;;;;;;;;;;;;;5034721;28;19916;-85
2023/08/17 08:10:46;;;;;;;;;;;;;;;;;;5031753;28;20638;-86
2023/08/17 08:13:11;;;;;;;;;;;;;;;;;;5044264;28;19983;-85
2023/08/17 08:15:37;;;;;;;;;;;;;;;;;;5034902;28;19924;-86
2023/08/17 08:18:02;;;;;;;;;;;;;;;;;;5035080;28;19921;-85
2023/08/17 08:20:27;;;;;;;;;;;;;;;;;;5041695;28;20004;-86
2023/08/17 08:22:52;;;;;;;;;;;;;;;;;;5042510;28;20574;-86
2023/08/17 08:25:18;;;;;;;;;;;;;;;;;;5027048;28;19913;-87
2023/08/17 08:27:43;;;;;;;;;;;;;;;;;;5033616;28;19913;-85
2023/08/17 08:30:08;;;;;;;;;;;;;;;;;;5036726;28;19916;-86
2023/08/17 08:32:33;;;;;;;;;;;;;;;;;;5026361;28;20005;-86
2023/08/17 08:34:59;;;;;;;;;;;;;;;;;;5039441;28;20289;-86
2023/08/17 08:37:24;;;;;;;;;;;;;;;;;;5028725;28;19924;-86
2023/08/17 08:39:53;;;;;;;;;;;;;;;;;;5042423;28;19966;-86
2023/08/17 08:42:19;;;;;;;;;;;;;;;;;;5024359;28;19940;-84
2023/08/17 08:44:45;;;;;;;;;;;;;;;;;;5034899;28;19920;-86
2023/08/17 08:47:11;;;;;;;;;;;;;;;;;;5044082;28;19957;-86
2023/08/17 08:49:38;;;;;;;;;;;;;;;;;;5029452;28;19913;-85
2023/08/17 08:52:06;;;;;;;;;;;;;;;;;;5038971;28;20119;-85
2023/08/17 08:54:32;;;;;;;;;;;;;;;;;;5044117;28;19931;-86
2023/08/17 08:57:00;;;;;;;;;;;;;;;;;;5041957;28;20731;-86
2023/08/17 08:59:26;;;;;;;;;;;;;;;;;;5029379;28;19920;-87
2023/08/17 09:01:52;;;;;;;;;;;;;;;;;;5040533;28;19978;-86
2023/08/17 09:04:17;;;;;;;;;;;;;;;;;;5041886;28;20370;-85
2023/08/17 09:06:43;;;;;;;;;;;;;;;;;;5029098;28;20032;-84
2023/08/17 09:09:08;;;;;;;;;;;;;;;;;;5043828;28;19913;-86
2023/08/17 09:11:34;;;;;;;;;;;;;;;;;;5029355;28;20374;-86
2023/08/17 09:13:59;;;;;;;;;;;;;;;;;;5032767;28;19921;-86
2023/08/17 09:16:24;;;;;;;;;;;;;;;;;;5024035;28;20062;-86
2023/08/17 09:18:52;;;;;;;;;;;;;;;;;;5035355;28;19917;-85
2023/08/17 09:21:22;;;;;;;;;;;;;;;;;;5023379;28;19999;-85
2023/08/17 09:23:54;;;;;;;;;;;;;;;;;;5043052;28;20409;-87
2023/08/17 09:26:21;;;;;;;;;;;;;;;;;;5022849;28;19967;-86
2023/08/17 09:28:47;;;;;;;;;;;;;;;;;;5041014;28;19959;-86
2023/08/17 09:31:12;;;;;;;;;;;;;;;;;;5027640;28;20293;-86
2023/08/17 09:33:37;;;;;;;;;;;;;;;;;;5041702;28;19913;-86
2023/08/17 09:36:03;;;;;;;;;;;;;;;;;;5035027;28;19935;-87
2023/08/17 09:38:28;;;;;;;;;;;;;;;;;;5040506;28;19921;-86
2023/08/17 09:40:53;;;;;;;;;;;;;;;;;;5038966;28;19920;-85
2023/08/17 09:43:20;;;;;;;;;;;;;;;;;;5037307;28;19912;-86
2023/08/17 09:45:48;;;;;;;;;;;;;;;;;;5027681;28;19912;-85
2023/08/17 09:48:14;;;;;;;;;;;;;;;;;;5030346;28;19912;-85
2023/08/17 09:50:40;;;;;;;;;;;;;;;;;;5042109;28;19920;-87
2023/08/17 09:53:05;;;;;;;;;;;;;;;;;;5043617;28;19912;-86
2023/08/17 09:55:32;;;;;;;;;;;;;;;;;;5046948;28;19931;-86
2023/08/17 09:57:58;;;;;;;;;;;;;;;;;;5040343;28;20488;-86
2023/08/17 10:00:24;;;;;;;;;;;;;;;;;;5034263;28;19921;-87
2023/08/17 10:02:51;;;;;;;;;;;;;;;;;;5041960;28;20011;-87
2023/08/17 10:05:17;;;;;;;;;;;;;;;;;;5040409;28;19932;-87
2023/08/17 10:07:45;;;;;;;;;;;;;;;;;;5036297;28;19919;-86
2023/08/17 10:10:11;;;;;;;;;;;;;;;;;;5038491;28;19916;-86
2023/08/17 10:12:40;;;;;;;;;;;;;;;;;;5036659;28;19919;-87
2023/08/17 10:15:10;;;;;;;;;;;;;;;;;;5028441;28;19929;-86
2023/08/17 10:17:40;;;;;;;;;;;;;;;;;;5032284;28;19920;-87
2023/08/17 10:20:06;;;;;;;;;;;;;;;;;;5029554;28;19999;-86
2023/08/17 10:22:38;;;;;;;;;;;;;;;;;;5036698;28;19963;-86
2023/08/17 10:25:04;;;;;;;;;;;;;;;;;;5037707;28;19921;-86
2023/08/17 10:27:30;;;;;;;;;;;;;;;;;;5041282;28;19943;-86
2023/08/17 10:29:56;;;;;;;;;;;;;;;;;;5041413;28;20354;-86
2023/08/17 10:32:23;;;;;;;;;;;;;;;;;;5038232;28;20320;-86
2023/08/17 10:34:49;;;;;;;;;;;;;;;;;;5038853;28;20007;-86
2023/08/17 10:37:15;;;;;;;;;;;;;;;;;;5036665;28;19966;-87
2023/08/17 10:39:47;;;;;;;;;;;;;;;;;;5042133;28;19917;-86
2023/08/17 10:42:13;;;;;;;;;;;;;;;;;;5038095;28;19962;-85
2023/08/17 10:44:40;;;;;;;;;;;;;;;;;;5037052;28;19917;-87
2023/08/17 10:47:18;;;;;;;;;;;;;;;;;;5039110;28;19919;-86
2023/08/17 10:49:43;;;;;;;;;;;;;;;;;;5043423;28;19971;-85
2023/08/17 10:52:09;;;;;;;;;;;;;;;;;;5041390;28;19913;-85
2023/08/17 10:54:38;;;;;;;;;;;;;;;;;;5033954;28;20423;-85
2023/08/17 10:57:22;;;;;;;;;;;;;;;;;;5035471;28;19928;-86
2023/08/17 11:00:05;;;;;;;;;;;;;;;;;;5023443;28;19909;-85
2023/08/17 11:02:31;;;;;;;;;;;;;;;;;;5032519;28;19921;-86
2023/08/17 11:04:57;;;;;;;;;;;;;;;;;;5031091;28;19920;-84
2023/08/17 11:07:23;;;;;;;;;;;;;;;;;;5036445;28;19917;-86
2023/08/17 11:09:48;;;;;;;;;;;;;;;;;;5035180;28;19909;-86
2023/08/17 11:12:32;;;;;;;;;;;;;;;;;;5038489;28;19917;-85
2023/08/17 11:14:57;;;;;;;;;;;;;;;;;;5039703;28;19925;-87
2023/08/17 11:17:23;;;;;;;;;;;;;;;;;;5036456;28;20329;-86
2023/08/17 11:19:51;;;;;;;;;;;;;;;;;;5039456;28;19909;-85
2023/08/17 11:22:16;;;;;;;;;;;;;;;;;;5019046;28;19917;-86
2023/08/17 11:24:43;;;;;;;;;;;;;;;;;;5042208;28;19917;-87
2023/08/17 11:27:09;;;;;;;;;;;;;;;;;;5028560;28;19913;-85
2023/08/17 11:29:34;;;;;;;;;;;;;;;;;;5038165;28;20015;-86
2023/08/17 11:31:59;;;;;;;;;;;;;;;;;;5037886;28;19959;-85
2023/08/17 11:34:24;;;;;;;;;;;;;;;;;;5041093;28;19917;-86
2023/08/17 11:36:50;;;;;;;;;;;;;;;;;;5036990;28;20008;-86
2023/08/17 11:39:15;;;;;;;;;;;;;;;;;;5041049;28;19923;-86
2023/08/17 11:41:41;;;;;;;;;;;;;;;;;;5038566;28;19920;-85
2023/08/17 11:44:06;;;;;;;;;;;;;;;;;;5023282;28;20463;-86
2023/08/17 11:46:32;;;;;;;;;;;;;;;;;;5047063;28;19909;-84
2023/08/17 11:48:59;;;;;;;;;;;;;;;;;;5042613;28;19916;-87
2023/08/17 11:51:30;;;;;;;;;;;;;;;;;;5038668;28;19921;-86
2023/08/17 11:53:58;;;;;;;;;;;;;;;;;;5039202;28;19917;-87
2023/08/17 11:56:23;;;;;;;;;;;;;;;;;;5022364;28;19924;-86
2023/08/17 11:58:48;;;;;;;;;;;;;;;;;;5038713;28;20297;-86
2023/08/17 12:01:15;;;;;;;;;;;;;;;;;;5023751;28;19975;-86
2023/08/17 12:03:41;;;;;;;;;;;;;;;;;;5038267;28;19912;-86
2023/08/17 12:06:06;;;;;;;;;;;;;;;;;;5018736;28;19917;-85
2023/08/17 12:08:32;;;;;;;;;;;;;;;;;;5040366;28;19924;-85
2023/08/17 12:10:57;;;;;;;;;;;;;;;;;;5035979;28;19920;-86
2023/08/17 12:13:29;;;;;;;;;;;;;;;;;;5040304;28;19923;-86
2023/08/17 12:15:55;;;;;;;;;;;;;;;;;;5040277;28;19982;-86
2023/08/17 12:18:20;;;;;;;;;;;;;;;;;;5037855;28;20370;-86
2023/08/17 12:20:51;;;;;;;;;;;;;;;;;;5047385;28;19909;-86
2023/08/17 12:23:16;;;;;;;;;;;;;;;;;;5045467;28;19999;-86
2023/08/17 12:25:42;;;;;;;;;;;;;;;;;;5042115;28;20007;-84
2023/08/17 12:28:07;;;;;;;;;;;;;;;;;;5037990;28;19917;-87
2023/08/17 12:30:32;;;;;;;;;;;;;;;;;;5043928;28;19920;-87
2023/08/17 12:32:58;;;;;;;;;;;;;;;;;;5044780;28;19970;-85
2023/08/17 12:35:24;;;;;;;;;;;;;;;;;;5033124;28;19934;-85
2023/08/17 12:37:50;;;;;;;;;;;;;;;;;;5036134;28;19922;-86
2023/08/17 12:40:15;;;;;;;;;;;;;;;;;;5039784;28;19912;-85
2023/08/17 12:42:40;;;;;;;;;;;;;;;;;;5029175;28;19989;-84
2023/08/17 12:45:05;;;;;;;;;;;;;;;;;;5026418;28;19927;-85
2023/08/17 12:47:31;;;;;;;;;;;;;;;;;;5037329;28;19921;-86
2023/08/17 12:49:56;;;;;;;;;;;;;;;;;;5042724;28;19921;-86
2023/08/17 12:52:21;;;;;;;;;;;;;;;;;;5038958;28;19921;-87
2023/08/17 12:54:47;;;;;;;;;;;;;;;;;;5045081;28;20416;-86
2023/08/17 12:57:12;;;;;;;;;;;;;;;;;;5038391;28;20297;-86
2023/08/17 12:59:37;;;;;;;;;;;;;;;;;;5042810;28;20019;-84
2023/08/17 13:02:02;;;;;;;;;;;;;;;;;;5031971;28;19920;-87
2023/08/17 13:04:27;;;;;;;;;;;;;;;;;;5028483;28;20333;-87
2023/08/17 13:06:55;;;;;;;;;;;;;;;;;;5042540;28;19921;-86
2023/08/17 13:09:20;;;;;;;;;;;;;;;;;;5042066;28;19959;-85
2023/08/17 13:11:46;;;;;;;;;;;;;;;;;;5043733;28;19913;-86
2023/08/17 13:14:12;;;;;;;;;;;;;;;;;;5039248;28;19936;-86
2023/08/17 13:16:37;;;;;;;;;;;;;;;;;;5037766;28;19916;-83
2023/08/17 13:19:03;;;;;;;;;;;;;;;;;;5037553;28;19999;-85
2023/08/17 13:21:28;;;;;;;;;;;;;;;;;;5039390;28;20023;-84
2023/08/17 13:23:53;;;;;;;;;;;;;;;;;;5038373;28;20047;-85
2023/08/17 13:26:18;;;;;;;;;;;;;;;;;;5042559;28;19954;-83
2023/08/17 13:28:44;;;;;;;;;;;;;;;;;;5038837;28;19923;-83
2023/08/17 13:31:09;;;;;;;;;;;;;;;;;;5044339;28;19913;-82
2023/08/17 13:33:34;;;;;;;;;;;;;;;;;;5042168;28;19917;-83
2023/08/17 13:36:00;;;;;;;;;;;;;;;;;;5039722;28;20458;-86
2023/08/17 13:38:25;;;;;;;;;;;;;;;;;;5023154;28;19995;-84
2023/08/17 13:40:50;;;;;;;;;;;;;;;;;;5042594;28;19909;-86
2023/08/17 13:43:15;;;;;;;;;;;;;;;;;;5027177;28;19912;-84
2023/08/17 13:45:41;;;;;;;;;;;;;;;;;;5038622;28;19982;-84
2023/08/17 13:48:07;;;;;;;;;;;;;;;;;;5041614;28;19952;-82
2023/08/17 13:50:32;;;;;;;;;;;;;;;;;;5036241;28;19920;-86
2023/08/17 13:53:00;;;;;;;;;;;;;;;;;;5040509;28;20262;-86
2023/08/17 13:55:25;;;;;;;;;;;;;;;;;;5035648;28;19924;-86
2023/08/17 13:57:52;;;;;;;;;;;;;;;;;;5041811;28;19932;-86
2023/08/17 14:00:18;;;;;;;;;;;;;;;;;;5043506;28;19923;-87
2023/08/17 14:02:43;;;;;;;;;;;;;;;;;;5040048;28;21623;-84
2023/08/17 14:05:08;;;;;;;;;;;;;;;;;;5039080;28;20003;-86
2023/08/17 14:07:33;;;;;;;;;;;;;;;;;;5024950;28;19912;-83
2023/08/17 14:09:59;;;;;;;;;;;;;;;;;;5030010;28;19928;-87
2023/08/17 14:12:24;;;;;;;;;;;;;;;;;;5041601;28;19975;-86
2023/08/17 14:14:49;;;;;;;;;;;;;;;;;;5039723;28;19916;-86
2023/08/17 14:17:14;;;;;;;;;;;;;;;;;;5027766;28;19912;-85
2023/08/17 14:19:39;;;;;;;;;;;;;;;;;;5045478;28;19912;-86
2023/08/17 14:22:05;;;;;;;;;;;;;;;;;;5039672;28;19909;-85
2023/08/17 14:24:30;;;;;;;;;;;;;;;;;;5045545;28;19923;-86
2023/08/17 14:26:57;;;;;;;;;;;;;;;;;;5035681;28;20540;-86
2023/08/17 14:29:23;;;;;;;;;;;;;;;;;;5040650;28;19917;-85
2023/08/17 14:31:48;;;;;;;;;;;;;;;;;;5043781;28;19923;-84
2023/08/17 14:34:15;;;;;;;;;;;;;;;;;;5034708;28;20031;-85
2023/08/17 14:36:40;;;;;;;;;;;;;;;;;;5034546;28;19936;-83
2023/08/17 14:39:05;;;;;;;;;;;;;;;;;;5037922;28;19946;-84
2023/08/17 14:41:33;;;;;;;;;;;;;;;;;;5036997;28;20395;-83
2023/08/17 14:43:59;;;;;;;;;;;;;;;;;;5037465;28;19955;-86
2023/08/17 14:46:24;;;;;;;;;;;;;;;;;;5039820;28;19951;-84
2023/08/17 14:48:50;;;;;;;;;;;;;;;;;;5046131;28;19921;-84
2023/08/17 14:51:15;;;;;;;;;;;;;;;;;;5039620;28;19909;-87
2023/08/17 14:53:40;;;;;;;;;;;;;;;;;;5043289;28;19919;-84
2023/08/17 14:56:06;;;;;;;;;;;;;;;;;;5031637;28;19913;-86
2023/08/17 14:58:31;;;;;;;;;;;;;;;;;;5039067;28;19934;-87
2023/08/17 15:00:56;;;;;;;;;;;;;;;;;;5030577;28;19920;-85
2023/08/17 15:03:22;;;;;;;;;;;;;;;;;;5036922;28;19972;-85
2023/08/17 15:05:47;;;;;;;;;;;;;;;;;;5040295;28;19951;-86
2023/08/17 15:08:12;;;;;;;;;;;;;;;;;;5041413;28;19917;-85
2023/08/17 15:10:38;;;;;;;;;;;;;;;;;;5047533;28;19919;-85
2023/08/17 15:13:03;;;;;;;;;;;;;;;;;;5041521;28;20003;-86
2023/08/17 15:15:28;;;;;;;;;;;;;;;;;;5047963;28;19927;-86
2023/08/17 15:17:54;;;;;;;;;;;;;;;;;;5038845;28;20054;-87
2023/08/17 15:20:19;;;;;;;;;;;;;;;;;;5047664;28;19920;-87
2023/08/17 15:22:44;;;;;;;;;;;;;;;;;;5043677;28;19913;-86
2023/08/17 15:25:09;;;;;;;;;;;;;;;;;;5048578;28;20386;-86
2023/08/17 15:27:35;;;;;;;;;;;;;;;;;;5039784;28;19909;-84
2023/08/17 15:30:00;;;;;;;;;;;;;;;;;;5043260;28;19921;-88
2023/08/17 15:32:25;;;;;;;;;;;;;;;;;;5048179;28;19916;-85
2023/08/17 15:34:51;;;;;;;;;;;;;;;;;;5045445;28;19916;-86
2023/08/17 15:37:16;;;;;;;;;;;;;;;;;;5038541;28;19963;-86
2023/08/17 15:39:41;;;;;;;;;;;;;;;;;;5040798;28;19927;-84
2023/08/17 15:42:06;;;;;;;;;;;;;;;;;;5040065;28;20033;-85
2023/08/17 15:44:32;;;;;;;;;;;;;;;;;;5042349;28;19955;-85
2023/08/17 15:46:58;;;;;;;;;;;;;;;;;;5052043;28;20313;-86
2023/08/17 15:49:23;;;;;;;;;;;;;;;;;;5032797;28;19920;-87
2023/08/17 15:51:49;;;;;;;;;;;;;;;;;;5041972;28;19912;-86
2023/08/17 15:54:14;;;;;;;;;;;;;;;;;;5046652;28;19916;-85
2023/08/17 15:56:39;;;;;;;;;;;;;;;;;;5043364;28;19913;-85
2023/08/17 15:59:04;;;;;;;;;;;;;;;;;;5047918;28;19999;-83
2023/08/17 16:01:30;;;;;;;;;;;;;;;;;;5043231;28;20432;-87
2023/08/17 16:03:56;;;;;;;;;;;;;;;;;;5028892;28;19923;-86
2023/08/17 16:06:21;;;;;;;;;;;;;;;;;;5051723;28;19909;-87
2023/08/17 16:08:46;;;;;;;;;;;;;;;;;;5040946;28;19920;-84
2023/08/17 16:11:11;;;;;;;;;;;;;;;;;;5042954;28;20329;-86
2023/08/17 16:13:40;;;;;;;;;;;;;;;;;;5048813;28;19919;-87
2023/08/17 16:16:05;;;;;;;;;;;;;;;;;;5043392;28;20008;-85
2023/08/17 16:18:31;;;;;;;;;;;;;;;;;;5042047;28;19969;-87
2023/08/17 16:20:56;;;;;;;;;;;;;;;;;;5046378;28;19916;-85
2023/08/17 16:23:21;;;;;;;;;;;;;;;;;;5047147;28;19913;-87
2023/08/17 16:25:46;;;;;;;;;;;;;;;;;;5046136;28;19912;-85
2023/08/17 16:28:12;;;;;;;;;;;;;;;;;;5043073;28;19966;-84
2023/08/17 16:30:39;;;;;;;;;;;;;;;;;;5039550;28;19948;-84
2023/08/17 16:33:23;;;;;;;;;;;;;;;;;;5017612;28;19917;-84
2023/08/17 16:35:48;;;;;;;;;;;;;;;;;;5009125;28;19931;-86
2023/08/17 16:38:13;;;;;;;;;;;;;;;;;;5038406;28;19917;-85
2023/08/17 16:40:39;;;;;;;;;;;;;;;;;;5040277;28;19913;-84